sensor_id;sensor_type;location;lat;lon;timestamp;pressure;altitude;pressure_sealevel;temperature;humidity
68525;BME280;55524;51.380;13.372;2023-07-31T00:00:43;100229.16;;;15.04;100.00
68525;BME280;55524;51.380;13.372;2023-07-31T00:03:10;100225.66;;;15.04;100.00
68525;BME280;55524;51.380;13.372;2023-07-31T00:05:36;100218.91;;;14.98;100.00
68525;BME280;55524;51.380;13.372;2023-07-31T00:08:03;100223.72;;;14.91;100.00
68525;BME280;55524;51.380;13.372;2023-07-31T00:10:29;100216.88;;;14.87;100.00
68525;BME280;55524;51.380;13.372;2023-07-31T00:12:55;100210.34;;;14.93;100.00
68525;BME280;55524;51.380;13.372;2023-07-31T00:15:21;100203.28;;;14.92;100.00
68525;BME280;55524;51.380;13.372;2023-07-31T00:17:48;100206.16;;;14.89;100.00
68525;BME280;55524;51.380;13.372;2023-07-31T00:20:14;100207.19;;;14.86;100.00
68525;BME280;55524;51.380;13.372;2023-07-31T00:22:40;100217.03;;;14.84;100.00
68525;BME280;55524;51.380;13.372;2023-07-31T00:25:07;100208.66;;;14.76;100.00
68525;BME280;55524;51.380;13.372;2023-07-31T00:27:33;100217.59;;;14.75;100.00
68525;BME280;55524;51.380;13.372;2023-07-31T00:29:59;100207.28;;;14.69;100.00
68525;BME280;55524;51.380;13.372;2023-07-31T00:32:25;100213.84;;;14.63;100.00
68525;BME280;55524;51.380;13.372;2023-07-31T00:34:52;100207.09;;;14.58;100.00
68525;BME280;55524;51.380;13.372;2023-07-31T00:37:18;100194.72;;;14.57;100.00
68525;BME280;55524;51.380;13.372;2023-07-31T00:39:44;100193.69;;;14.59;100.00
68525;BME280;55524;51.380;13.372;2023-07-31T00:42:11;100194.91;;;14.54;100.00
68525;BME280;55524;51.380;13.372;2023-07-31T00:44:37;100189.59;;;14.54;100.00
68525;BME280;55524;51.380;13.372;2023-07-31T00:47:03;100185.81;;;14.58;100.00
68525;BME280;55524;51.380;13.372;2023-07-31T00:49:30;100184.84;;;14.59;100.00
68525;BME280;55524;51.380;13.372;2023-07-31T00:51:56;100181.06;;;14.63;100.00
68525;BME280;55524;51.380;13.372;2023-07-31T00:54:23;100180.28;;;14.61;100.00
68525;BME280;55524;51.380;13.372;2023-07-31T00:56:51;100182.94;;;14.61;100.00
68525;BME280;55524;51.380;13.372;2023-07-31T00:59:18;100176.31;;;14.68;100.00
68525;BME280;55524;51.380;13.372;2023-07-31T01:01:45;100178.03;;;14.69;100.00
68525;BME280;55524;51.380;13.372;2023-07-31T01:04:12;100172.47;;;14.73;100.00
68525;BME280;55524;51.380;13.372;2023-07-31T01:09:22;100172.19;;;14.78;100.00
68525;BME280;55524;51.380;13.372;2023-07-31T01:12:02;100174.47;;;14.84;100.00
68525;BME280;55524;51.380;13.372;2023-07-31T01:14:29;100173.25;;;14.90;100.00
68525;BME280;55524;51.380;13.372;2023-07-31T01:16:55;100169.53;;;14.92;100.00
68525;BME280;55524;51.380;13.372;2023-07-31T01:19:26;100172.88;;;14.96;100.00
68525;BME280;55524;51.380;13.372;2023-07-31T01:28:14;100154.19;;;15.12;100.00
68525;BME280;55524;51.380;13.372;2023-07-31T01:30:47;100152.31;;;15.14;100.00
68525;BME280;55524;51.380;13.372;2023-07-31T01:33:15;100152.19;;;15.15;100.00
68525;BME280;55524;51.380;13.372;2023-07-31T01:35:44;100155.63;;;15.17;100.00
68525;BME280;55524;51.380;13.372;2023-07-31T01:38:12;100157.22;;;15.20;100.00
68525;BME280;55524;51.380;13.372;2023-07-31T01:40:42;100151.84;;;15.21;100.00
68525;BME280;55524;51.380;13.372;2023-07-31T01:43:08;100149.91;;;15.23;100.00
68525;BME280;55524;51.380;13.372;2023-07-31T01:45:34;100152.41;;;15.27;100.00
68525;BME280;55524;51.380;13.372;2023-07-31T01:48:01;100150.50;;;15.29;100.00
68525;BME280;55524;51.380;13.372;2023-07-31T01:50:27;100147.91;;;15.27;100.00
68525;BME280;55524;51.380;13.372;2023-07-31T01:52:53;100154.78;;;15.31;100.00
68525;BME280;55524;51.380;13.372;2023-07-31T01:55:19;100154.03;;;15.29;100.00
68525;BME280;55524;51.380;13.372;2023-07-31T01:57:46;100155.84;;;15.29;100.00
68525;BME280;55524;51.380;13.372;2023-07-31T02:00:12;100151.44;;;15.28;100.00
68525;BME280;55524;51.380;13.372;2023-07-31T02:02:38;100153.25;;;15.27;100.00
68525;BME280;55524;51.380;13.372;2023-07-31T02:05:05;100153.19;;;15.29;100.00
68525;BME280;55524;51.380;13.372;2023-07-31T02:07:32;100139.94;;;15.27;100.00
68525;BME280;55524;51.380;13.372;2023-07-31T02:09:58;100142.59;;;15.27;100.00
68525;BME280;55524;51.380;13.372;2023-07-31T02:12:24;100148.88;;;15.26;100.00
68525;BME280;55524;51.380;13.372;2023-07-31T02:14:50;100147.25;;;15.23;100.00
68525;BME280;55524;51.380;13.372;2023-07-31T02:17:17;100143.75;;;15.23;100.00
68525;BME280;55524;51.380;13.372;2023-07-31T02:19:43;100143.75;;;15.23;100.00
68525;BME280;55524;51.380;13.372;2023-07-31T02:22:09;100137.56;;;15.22;100.00
68525;BME280;55524;51.380;13.372;2023-07-31T02:24:35;100141.25;;;15.20;100.00
68525;BME280;55524;51.380;13.372;2023-07-31T02:27:02;100141.06;;;15.23;100.00
68525;BME280;55524;51.380;13.372;2023-07-31T02:29:28;100146.50;;;15.21;100.00
68525;BME280;55524;51.380;13.372;2023-07-31T02:31:54;100140.31;;;15.21;100.00
68525;BME280;55524;51.380;13.372;2023-07-31T02:34:21;100147.53;;;15.19;100.00
68525;BME280;55524;51.380;13.372;2023-07-31T02:36:47;100150.13;;;15.20;100.00
68525;BME280;55524;51.380;13.372;2023-07-31T02:39:13;100147.47;;;15.20;100.00
68525;BME280;55524;51.380;13.372;2023-07-31T02:41:39;100148.88;;;15.26;100.00
68525;BME280;55524;51.380;13.372;2023-07-31T02:44:05;100144.41;;;15.27;100.00
68525;BME280;55524;51.380;13.372;2023-07-31T02:46:32;100144.31;;;15.28;100.00
68525;BME280;55524;51.380;13.372;2023-07-31T02:48:58;100142.59;;;15.27;100.00
68525;BME280;55524;51.380;13.372;2023-07-31T02:51:24;100137.47;;;15.24;100.00
68525;BME280;55524;51.380;13.372;2023-07-31T02:53:51;100124.81;;;15.28;100.00
68525;BME280;55524;51.380;13.372;2023-07-31T02:56:17;100135.69;;;15.24;100.00
68525;BME280;55524;51.380;13.372;2023-07-31T02:58:43;100141.84;;;15.25;100.00
68525;BME280;55524;51.380;13.372;2023-07-31T03:01:10;100141.19;;;15.21;100.00
68525;BME280;55524;51.380;13.372;2023-07-31T03:03:36;100143.75;;;15.23;100.00
68525;BME280;55524;51.380;13.372;2023-07-31T03:06:02;100144.19;;;15.15;100.00
68525;BME280;55524;51.380;13.372;2023-07-31T03:08:28;100136.31;;;15.14;100.00
68525;BME280;55524;51.380;13.372;2023-07-31T03:10:56;100137.19;;;15.14;100.00
68525;BME280;55524;51.380;13.372;2023-07-31T03:13:22;100139.66;;;15.17;100.00
68525;BME280;55524;51.380;13.372;2023-07-31T03:15:48;100134.41;;;15.16;100.00
68525;BME280;55524;51.380;13.372;2023-07-31T03:18:15;100146.19;;;15.12;100.00
68525;BME280;55524;51.380;13.372;2023-07-31T03:20:44;100137.47;;;15.10;100.00
68525;BME280;55524;51.380;13.372;2023-07-31T03:23:10;100134.88;;;15.08;100.00
68525;BME280;55524;51.380;13.372;2023-07-31T03:25:37;100136.91;;;15.05;100.00
68525;BME280;55524;51.380;13.372;2023-07-31T03:28:03;100136.00;;;15.04;100.00
68525;BME280;55524;51.380;13.372;2023-07-31T03:30:29;100142.41;;;15.02;100.00
68525;BME280;55524;51.380;13.372;2023-07-31T03:32:56;100132.22;;;14.94;100.00
68525;BME280;55524;51.380;13.372;2023-07-31T03:35:22;100136.09;;;14.88;100.00
68525;BME280;55524;51.380;13.372;2023-07-31T03:37:48;100130.88;;;14.87;100.00
68525;BME280;55524;51.380;13.372;2023-07-31T03:40:14;100134.56;;;14.84;100.00
68525;BME280;55524;51.380;13.372;2023-07-31T03:42:41;100131.03;;;14.84;100.00
68525;BME280;55524;51.380;13.372;2023-07-31T03:45:07;100128.78;;;14.78;100.00
68525;BME280;55524;51.380;13.372;2023-07-31T03:47:34;100128.16;;;14.72;100.00
68525;BME280;55524;51.380;13.372;2023-07-31T03:50:00;100116.50;;;14.75;100.00
68525;BME280;55524;51.380;13.372;2023-07-31T03:52:26;100125.59;;;14.71;100.00
68525;BME280;55524;51.380;13.372;2023-07-31T03:54:53;100123.91;;;14.70;100.00
68525;BME280;55524;51.380;13.372;2023-07-31T03:57:19;100119.88;;;14.63;100.00
68525;BME280;55524;51.380;13.372;2023-07-31T03:59:45;100117.06;;;14.66;100.00
68525;BME280;55524;51.380;13.372;2023-07-31T04:02:11;100113.53;;;14.65;100.00
68525;BME280;55524;51.380;13.372;2023-07-31T04:04:40;100109.16;;;14.64;100.00
68525;BME280;55524;51.380;13.372;2023-07-31T04:07:06;100104.59;;;14.66;100.00
68525;BME280;55524;51.380;13.372;2023-07-31T04:09:32;100108.13;;;14.67;100.00
68525;BME280;55524;51.380;13.372;2023-07-31T04:11:58;100109.25;;;14.63;100.00
68525;BME280;55524;51.380;13.372;2023-07-31T04:14:25;100107.63;;;14.60;100.00
68525;BME280;55524;51.380;13.372;2023-07-31T04:16:51;100104.69;;;14.65;100.00
68525;BME280;55524;51.380;13.372;2023-07-31T04:19:18;100107.16;;;14.68;100.00
68525;BME280;55524;51.380;13.372;2023-07-31T04:21:44;100101.78;;;14.69;100.00
68525;BME280;55524;51.380;13.372;2023-07-31T04:24:10;100091.41;;;14.79;100.00
68525;BME280;55524;51.380;13.372;2023-07-31T04:26:37;100090.56;;;14.79;100.00
68525;BME280;55524;51.380;13.372;2023-07-31T04:29:03;100089.31;;;14.84;100.00
68525;BME280;55524;51.380;13.372;2023-07-31T04:31:29;100092.94;;;14.83;100.00
68525;BME280;55524;51.380;13.372;2023-07-31T04:33:56;100093.78;;;14.84;100.00
68525;BME280;55524;51.380;13.372;2023-07-31T04:36:22;100092.84;;;14.85;100.00
68525;BME280;55524;51.380;13.372;2023-07-31T04:38:48;100095.72;;;14.82;100.00
68525;BME280;55524;51.380;13.372;2023-07-31T04:41:15;100098.38;;;14.82;100.00
68525;BME280;55524;51.380;13.372;2023-07-31T04:43:41;100093.72;;;14.85;100.00
68525;BME280;55524;51.380;13.372;2023-07-31T04:46:07;100089.16;;;14.87;100.00
68525;BME280;55524;51.380;13.372;2023-07-31T04:48:34;100076.81;;;14.86;100.00
68525;BME280;55524;51.380;13.372;2023-07-31T04:51:00;100081.72;;;14.92;100.00
68525;BME280;55524;51.380;13.372;2023-07-31T04:53:26;100080.97;;;14.90;100.00
68525;BME280;55524;51.380;13.372;2023-07-31T04:55:52;100076.16;;;14.97;100.00
68525;BME280;55524;51.380;13.372;2023-07-31T04:58:19;100085.84;;;14.98;100.00
68525;BME280;55524;51.380;13.372;2023-07-31T05:00:45;100081.38;;;14.98;100.00
68525;BME280;55524;51.380;13.372;2023-07-31T05:03:11;100077.00;;;14.97;100.00
68525;BME280;55524;51.380;13.372;2023-07-31T05:05:38;100075.19;;;14.98;100.00
68525;BME280;55524;51.380;13.372;2023-07-31T05:08:04;100072.81;;;14.93;100.00
68525;BME280;55524;51.380;13.372;2023-07-31T05:10:30;100073.09;;;15.03;100.00
68525;BME280;55524;51.380;13.372;2023-07-31T05:12:57;100078.53;;;15.02;100.00
68525;BME280;55524;51.380;13.372;2023-07-31T05:15:23;100079.56;;;14.99;100.00
68525;BME280;55524;51.380;13.372;2023-07-31T05:17:50;100073.94;;;15.04;100.00
68525;BME280;55524;51.380;13.372;2023-07-31T05:20:16;100060.81;;;15.00;100.00
68525;BME280;55524;51.380;13.372;2023-07-31T05:22:42;100059.50;;;15.08;100.00
68525;BME280;55524;51.380;13.372;2023-07-31T05:25:09;100065.78;;;15.07;100.00
68525;BME280;55524;51.380;13.372;2023-07-31T05:27:35;100064.63;;;15.11;100.00
68525;BME280;55524;51.380;13.372;2023-07-31T05:30:02;100059.13;;;15.14;100.00
68525;BME280;55524;51.380;13.372;2023-07-31T05:32:28;100058.53;;;15.23;100.00
68525;BME280;55524;51.380;13.372;2023-07-31T05:34:54;100058.16;;;15.29;100.00
68525;BME280;55524;51.380;13.372;2023-07-31T05:37:21;100062.66;;;15.29;100.00
68525;BME280;55524;51.380;13.372;2023-07-31T05:39:48;100048.06;;;15.34;100.00
68525;BME280;55524;51.380;13.372;2023-07-31T05:42:14;100053.28;;;15.36;100.00
68525;BME280;55524;51.380;13.372;2023-07-31T05:44:40;100063.75;;;15.39;100.00
68525;BME280;55524;51.380;13.372;2023-07-31T05:47:07;100061.94;;;15.39;100.00
68525;BME280;55524;51.380;13.372;2023-07-31T05:49:33;100056.72;;;15.38;100.00
68525;BME280;55524;51.380;13.372;2023-07-31T05:52:00;100055.78;;;15.39;100.00
68525;BME280;55524;51.380;13.372;2023-07-31T05:54:26;100051.41;;;15.38;100.00
68525;BME280;55524;51.380;13.372;2023-07-31T05:56:52;100054.06;;;15.38;100.00
68525;BME280;55524;51.380;13.372;2023-07-31T05:59:19;100063.94;;;15.36;100.00
68525;BME280;55524;51.380;13.372;2023-07-31T06:01:45;100057.69;;;15.37;100.00
68525;BME280;55524;51.380;13.372;2023-07-31T06:04:11;100058.72;;;15.34;100.00
68525;BME280;55524;51.380;13.372;2023-07-31T06:06:37;100062.44;;;15.32;100.00
68525;BME280;55524;51.380;13.372;2023-07-31T06:09:04;100065.19;;;15.30;100.00
68525;BME280;55524;51.380;13.372;2023-07-31T06:11:30;100063.00;;;15.22;100.00
68525;BME280;55524;51.380;13.372;2023-07-31T06:13:56;100059.63;;;15.20;100.00
68525;BME280;55524;51.380;13.372;2023-07-31T06:16:23;100064.81;;;15.22;100.00
68525;BME280;55524;51.380;13.372;2023-07-31T06:18:49;100060.66;;;15.18;100.00
68525;BME280;55524;51.380;13.372;2023-07-31T06:21:16;100059.41;;;15.23;100.00
68525;BME280;55524;51.380;13.372;2023-07-31T06:23:43;100060.66;;;15.18;100.00
68525;BME280;55524;51.380;13.372;2023-07-31T06:26:09;100059.75;;;15.32;100.00
68525;BME280;55524;51.380;13.372;2023-07-31T06:28:35;100050.94;;;15.31;100.00
68525;BME280;55524;51.380;13.372;2023-07-31T06:31:02;100047.53;;;15.29;100.00
68525;BME280;55524;51.380;13.372;2023-07-31T06:33:28;100042.16;;;15.43;100.00
68525;BME280;55524;51.380;13.372;2023-07-31T06:35:55;100056.25;;;15.45;100.00
68525;BME280;55524;51.380;13.372;2023-07-31T06:38:24;100056.78;;;15.50;100.00
68525;BME280;55524;51.380;13.372;2023-07-31T06:40:51;100052.59;;;15.61;100.00
68525;BME280;55524;51.380;13.372;2023-07-31T06:43:17;100052.47;;;15.62;100.00
68525;BME280;55524;51.380;13.372;2023-07-31T06:45:43;100048.69;;;15.66;100.00
68525;BME280;55524;51.380;13.372;2023-07-31T06:48:10;100057.16;;;15.73;100.00
68525;BME280;55524;51.380;13.372;2023-07-31T06:50:36;100053.34;;;15.77;100.00
68525;BME280;55524;51.380;13.372;2023-07-31T06:53:03;100055.59;;;15.83;100.00
68525;BME280;55524;51.380;13.372;2023-07-31T06:55:29;100047.19;;;15.89;100.00
68525;BME280;55524;51.380;13.372;2023-07-31T06:57:56;100043.63;;;16.03;100.00
68525;BME280;55524;51.380;13.372;2023-07-31T07:00:23;100044.84;;;16.12;100.00
68525;BME280;55524;51.380;13.372;2023-07-31T07:02:49;100056.34;;;16.12;100.00
68525;BME280;55524;51.380;13.372;2023-07-31T07:05:17;100042.28;;;16.23;100.00
68525;BME280;55524;51.380;13.372;2023-07-31T07:07:44;100035.78;;;16.27;100.00
68525;BME280;55524;51.380;13.372;2023-07-31T07:10:10;100042.72;;;16.30;100.00
68525;BME280;55524;51.380;13.372;2023-07-31T07:12:37;100049.03;;;16.41;100.00
68525;BME280;55524;51.380;13.372;2023-07-31T07:15:03;100046.81;;;16.48;100.00
68525;BME280;55524;51.380;13.372;2023-07-31T07:17:30;100045.22;;;16.58;100.00
68525;BME280;55524;51.380;13.372;2023-07-31T07:19:57;100045.88;;;16.62;100.00
68525;BME280;55524;51.380;13.372;2023-07-31T07:22:24;100048.03;;;16.82;100.00
68525;BME280;55524;51.380;13.372;2023-07-31T07:24:51;100037.91;;;16.87;100.00
68525;BME280;55524;51.380;13.372;2023-07-31T07:27:18;100043.75;;;17.05;100.00
68525;BME280;55524;51.380;13.372;2023-07-31T07:29:45;100045.47;;;17.19;100.00
68525;BME280;55524;51.380;13.372;2023-07-31T07:32:12;100041.09;;;17.55;100.00
68525;BME280;55524;51.380;13.372;2023-07-31T07:34:38;100045.66;;;17.78;100.00
68525;BME280;55524;51.380;13.372;2023-07-31T07:37:05;100031.66;;;17.75;100.00
68525;BME280;55524;51.380;13.372;2023-07-31T07:39:31;100035.53;;;17.94;100.00
68525;BME280;55524;51.380;13.372;2023-07-31T07:41:57;100020.75;;;18.13;100.00
68525;BME280;55524;51.380;13.372;2023-07-31T07:44:24;100034.88;;;18.50;100.00
68525;BME280;55524;51.380;13.372;2023-07-31T07:46:50;100021.84;;;18.46;100.00
68525;BME280;55524;51.380;13.372;2023-07-31T07:49:16;100001.50;;;18.43;100.00
68525;BME280;55524;51.380;13.372;2023-07-31T07:51:42;100026.25;;;18.58;100.00
68525;BME280;55524;51.380;13.372;2023-07-31T07:54:09;100028.47;;;18.75;100.00
68525;BME280;55524;51.380;13.372;2023-07-31T07:56:35;100018.47;;;18.66;100.00
68525;BME280;55524;51.380;13.372;2023-07-31T07:59:02;100023.22;;;18.62;100.00
68525;BME280;55524;51.380;13.372;2023-07-31T08:01:28;100037.66;;;18.60;100.00
68525;BME280;55524;51.380;13.372;2023-07-31T08:03:54;100021.94;;;18.44;100.00
68525;BME280;55524;51.380;13.372;2023-07-31T08:06:21;100037.47;;;18.28;100.00
68525;BME280;55524;51.380;13.372;2023-07-31T08:08:48;100023.00;;;18.30;100.00
68525;BME280;55524;51.380;13.372;2023-07-31T08:11:14;100026.53;;;18.31;100.00
68525;BME280;55524;51.380;13.372;2023-07-31T08:13:41;100038.53;;;18.14;100.00
68525;BME280;55524;51.380;13.372;2023-07-31T08:16:07;100017.84;;;18.16;100.00
68525;BME280;55524;51.380;13.372;2023-07-31T08:18:34;100038.63;;;18.12;100.00
68525;BME280;55524;51.380;13.372;2023-07-31T08:21:02;100018.69;;;18.16;100.00
68525;BME280;55524;51.380;13.372;2023-07-31T08:23:28;100029.56;;;18.26;100.00
68525;BME280;55524;51.380;13.372;2023-07-31T08:25:55;100021.59;;;18.37;100.00
68525;BME280;55524;51.380;13.372;2023-07-31T08:28:21;100030.31;;;18.39;100.00
68525;BME280;55524;51.380;13.372;2023-07-31T08:30:47;100017.09;;;18.49;100.00
68525;BME280;55524;51.380;13.372;2023-07-31T08:33:14;100020.88;;;18.47;100.00
68525;BME280;55524;51.380;13.372;2023-07-31T08:35:40;100016.13;;;18.50;100.00
68525;BME280;55524;51.380;13.372;2023-07-31T08:38:06;100024.63;;;18.44;100.00
68525;BME280;55524;51.380;13.372;2023-07-31T08:40:35;100026.81;;;18.39;100.00
68525;BME280;55524;51.380;13.372;2023-07-31T08:43:02;100027.16;;;18.34;100.00
68525;BME280;55524;51.380;13.372;2023-07-31T08:45:29;100033.97;;;18.38;100.00
68525;BME280;55524;51.380;13.372;2023-07-31T08:47:56;100030.09;;;18.42;100.00
68525;BME280;55524;51.380;13.372;2023-07-31T08:50:26;100023.63;;;18.45;100.00
68525;BME280;55524;51.380;13.372;2023-07-31T08:52:54;100023.38;;;18.37;100.00
68525;BME280;55524;51.380;13.372;2023-07-31T08:55:20;100022.53;;;18.36;100.00
68525;BME280;55524;51.380;13.372;2023-07-31T08:57:51;100007.94;;;18.40;99.22
68525;BME280;55524;51.380;13.372;2023-07-31T09:00:21;100003.22;;;18.44;97.31
68525;BME280;55524;51.380;13.372;2023-07-31T09:05:19;100009.94;;;18.50;98.64
68525;BME280;55524;51.380;13.372;2023-07-31T09:07:48;100012.34;;;18.53;98.49
68525;BME280;55524;51.380;13.372;2023-07-31T09:10:15;100014.91;;;18.54;99.74
68525;BME280;55524;51.380;13.372;2023-07-31T09:12:42;100011.47;;;18.41;99.36
68525;BME280;55524;51.380;13.372;2023-07-31T09:15:09;100012.84;;;18.47;99.06
68525;BME280;55524;51.380;13.372;2023-07-31T09:17:36;100018.06;;;18.48;100.00
68525;BME280;55524;51.380;13.372;2023-07-31T09:20:17;100006.25;;;18.39;98.52
68525;BME280;55524;51.380;13.372;2023-07-31T09:22:46;100008.91;;;18.39;98.79
68525;BME280;55524;51.380;13.372;2023-07-31T09:27:57;100012.44;;;18.40;97.61
68525;BME280;55524;51.380;13.372;2023-07-31T09:30:23;100020.25;;;18.43;97.56
68525;BME280;55524;51.380;13.372;2023-07-31T09:32:51;100023.53;;;18.47;98.45
68525;BME280;55524;51.380;13.372;2023-07-31T09:35:27;100007.75;;;18.55;96.70
68525;BME280;55524;51.380;13.372;2023-07-31T09:38:06;99998.38;;;18.60;95.45
68525;BME280;55524;51.380;13.372;2023-07-31T09:40:34;100000.44;;;18.68;96.13
68525;BME280;55524;51.380;13.372;2023-07-31T09:43:03;100006.94;;;18.77;95.49
68525;BME280;55524;51.380;13.372;2023-07-31T09:45:33;99992.00;;;18.85;93.57
68525;BME280;55524;51.380;13.372;2023-07-31T09:47:59;99988.69;;;19.04;93.80
68525;BME280;55524;51.380;13.372;2023-07-31T09:50:25;99972.72;;;19.14;91.00
68525;BME280;55524;51.380;13.372;2023-07-31T09:52:52;99970.66;;;19.17;90.46
68525;BME280;55524;51.380;13.372;2023-07-31T09:55:19;99975.03;;;19.19;91.09
68525;BME280;55524;51.380;13.372;2023-07-31T09:57:49;99971.28;;;19.21;91.24
68525;BME280;55524;51.380;13.372;2023-07-31T10:00:19;99984.91;;;19.29;91.31
68525;BME280;55524;51.380;13.372;2023-07-31T10:02:48;99983.53;;;19.35;91.78
68525;BME280;55524;51.380;13.372;2023-07-31T10:05:15;99973.94;;;19.21;90.01
68525;BME280;55524;51.380;13.372;2023-07-31T10:07:51;99973.56;;;19.26;90.64
68525;BME280;55524;51.380;13.372;2023-07-31T10:10:21;99971.88;;;19.13;90.17
68525;BME280;55524;51.380;13.372;2023-07-31T10:12:49;99980.53;;;19.28;91.19
68525;BME280;55524;51.380;13.372;2023-07-31T10:15:16;99978.56;;;19.19;89.47
68525;BME280;55524;51.380;13.372;2023-07-31T10:17:43;99972.72;;;19.25;89.49
68525;BME280;55524;51.380;13.372;2023-07-31T10:20:11;99961.63;;;19.30;87.65
68525;BME280;55524;51.380;13.372;2023-07-31T10:22:38;99970.88;;;19.26;89.44
68525;BME280;55524;51.380;13.372;2023-07-31T10:25:05;99968.31;;;19.35;90.55
68525;BME280;55524;51.380;13.372;2023-07-31T10:27:35;99943.31;;;19.46;87.86
68525;BME280;55524;51.380;13.372;2023-07-31T10:30:04;99936.84;;;19.49;87.31
68525;BME280;55524;51.380;13.372;2023-07-31T10:32:32;99938.78;;;19.47;87.22
68525;BME280;55524;51.380;13.372;2023-07-31T10:34:58;99920.97;;;19.57;84.65
68525;BME280;55524;51.380;13.372;2023-07-31T10:37:29;99933.81;;;19.42;87.08
68525;BME280;55524;51.380;13.372;2023-07-31T10:40:09;99933.81;;;19.42;87.81
68525;BME280;55524;51.380;13.372;2023-07-31T10:42:38;99939.66;;;19.36;86.55
68525;BME280;55524;51.380;13.372;2023-07-31T10:45:10;99936.34;;;19.44;86.95
68525;BME280;55524;51.380;13.372;2023-07-31T10:47:43;99939.81;;;19.34;87.33
68525;BME280;55524;51.380;13.372;2023-07-31T10:50:23;99934.69;;;19.31;88.04
68525;BME280;55524;51.380;13.372;2023-07-31T10:52:52;99947.38;;;19.29;90.04
68525;BME280;55524;51.380;13.372;2023-07-31T10:55:38;99948.31;;;19.39;90.39
68525;BME280;55524;51.380;13.372;2023-07-31T10:58:13;99931.53;;;19.37;88.27
68525;BME280;55524;51.380;13.372;2023-07-31T11:00:44;99949.06;;;19.41;90.17
68525;BME280;55524;51.380;13.372;2023-07-31T11:03:12;99923.44;;;19.49;88.14
68525;BME280;55524;51.380;13.372;2023-07-31T11:06:03;99932.94;;;19.53;90.01
68525;BME280;55524;51.380;13.372;2023-07-31T11:08:30;99953.78;;;19.49;94.09
68525;BME280;55524;51.380;13.372;2023-07-31T11:13:53;99965.63;;;19.35;96.18
68525;BME280;55524;51.380;13.372;2023-07-31T11:16:21;99965.72;;;19.56;97.04
68525;BME280;55524;51.380;13.372;2023-07-31T11:18:49;99969.97;;;19.48;97.97
68525;BME280;55524;51.380;13.372;2023-07-31T11:21:23;99954.63;;;19.50;97.72
68525;BME280;55524;51.380;13.372;2023-07-31T11:23:51;99938.91;;;19.56;93.39
68525;BME280;55524;51.380;13.372;2023-07-31T11:26:19;99947.78;;;19.57;94.78
68525;BME280;55524;51.380;13.372;2023-07-31T11:28:49;99933.03;;;19.51;94.34
68525;BME280;55524;51.380;13.372;2023-07-31T11:31:16;99916.84;;;19.53;91.53
68525;BME280;55524;51.380;13.372;2023-07-31T11:33:42;99919.44;;;19.43;90.82
68525;BME280;55524;51.380;13.372;2023-07-31T11:36:16;99918.09;;;19.49;92.82
68525;BME280;55524;51.380;13.372;2023-07-31T11:38:43;99912.72;;;19.49;91.84
68525;BME280;55524;51.380;13.372;2023-07-31T11:41:09;99920.97;;;19.57;93.07
68525;BME280;55524;51.380;13.372;2023-07-31T11:43:35;99926.06;;;19.71;92.42
68525;BME280;55524;51.380;13.372;2023-07-31T11:46:04;99907.44;;;19.90;90.77
68525;BME280;55524;51.380;13.372;2023-07-31T11:48:37;99896.72;;;20.11;88.52
68525;BME280;55524;51.380;13.372;2023-07-31T11:51:05;99894.34;;;20.18;87.55
68525;BME280;55524;51.380;13.372;2023-07-31T11:56:01;99869.69;;;20.34;84.96
68525;BME280;55524;51.380;13.372;2023-07-31T11:58:31;99870.84;;;20.31;85.36
68525;BME280;55524;51.380;13.372;2023-07-31T12:01:00;99865.34;;;20.43;85.34
68525;BME280;55524;51.380;13.372;2023-07-31T12:03:27;99852.66;;;20.45;84.21
68525;BME280;55524;51.380;13.372;2023-07-31T12:05:54;99851.69;;;20.46;83.72
68525;BME280;55524;51.380;13.372;2023-07-31T12:08:27;99853.38;;;20.47;84.00
68525;BME280;55524;51.380;13.372;2023-07-31T12:10:54;99830.13;;;20.57;81.99
68525;BME280;55524;51.380;13.372;2023-07-31T12:13:25;99828.34;;;20.67;81.14
68525;BME280;55524;51.380;13.372;2023-07-31T12:16:02;99824.41;;;20.81;81.50
68525;BME280;55524;51.380;13.372;2023-07-31T12:18:33;99811.41;;;20.96;81.47
68525;BME280;55524;51.380;13.372;2023-07-31T12:21:01;99814.81;;;21.17;81.03
68525;BME280;55524;51.380;13.372;2023-07-31T12:23:29;99800.97;;;21.31;79.38
68525;BME280;55524;51.380;13.372;2023-07-31T12:26:15;99797.31;;;21.42;78.56
68525;BME280;55524;51.380;13.372;2023-07-31T12:28:46;99802.13;;;21.48;80.09
68525;BME280;55524;51.380;13.372;2023-07-31T12:31:18;99792.50;;;21.55;78.14
68525;BME280;55524;51.380;13.372;2023-07-31T12:33:49;99803.25;;;21.46;78.76
68525;BME280;55524;51.380;13.372;2023-07-31T12:36:17;99799.28;;;21.50;78.51
68525;BME280;55524;51.380;13.372;2023-07-31T12:38:44;99781.59;;;21.47;77.21
68525;BME280;55524;51.380;13.372;2023-07-31T12:41:11;99784.13;;;21.58;77.12
68525;BME280;55524;51.380;13.372;2023-07-31T12:43:40;99753.72;;;21.58;75.32
68525;BME280;55524;51.380;13.372;2023-07-31T12:46:07;99774.19;;;21.69;76.63
68525;BME280;55524;51.380;13.372;2023-07-31T12:48:36;99759.06;;;21.68;75.20
68525;BME280;55524;51.380;13.372;2023-07-31T12:51:03;99743.25;;;21.55;72.67
68525;BME280;55524;51.380;13.372;2023-07-31T12:53:30;99754.84;;;21.46;73.45
68525;BME280;55524;51.380;13.372;2023-07-31T12:55:56;99740.38;;;21.56;72.29